This is the latest recevied weather packets stored in our database for station/object VK1KCM-5. If no packets are shown the sender has not sent any weather packets the latest 10 day(s).
| Time | Temp. | Humidity | Pressure | Rain* | Wind** | Luminosity | Snow |
|---|---|---|---|---|---|---|---|
| 1787727963 | 15.56° C | 72% | 1017.7 hPa | 0 mm | - | - | - |
| 1787727683 | 16.67° C | 70% | 1017.7 hPa | 0 mm | - | - | - |
| 1787727423 | 17.22° C | 67% | 1017.3 hPa | 0 mm | - | - | - |
| 1787727153 | 17.22° C | 65% | 1017.3 hPa | 0 mm | - | - | - |
| 1787726908 | 17.78° C | 66% | 1017 hPa | 0 mm | - | - | - |
| 1787726613 | 17.22° C | 67% | 1016.9 hPa | 0 mm | - | - | - |
| 1787726343 | 17.22° C | 69% | 1016.9 hPa | 0 mm | - | - | - |
| 1787726043 | 16.67° C | 70% | 1017 hPa | 0 mm | - | - | - |
| 1787725758 | 16.67° C | 70% | 1017 hPa | 0 mm | - | - | - |
| 1787725493 | 16.67° C | 71% | 1017.1 hPa | 0 mm | - | - | - |
| 1787725193 | 16.67° C | 73% | 1017.1 hPa | 0 mm | - | - | - |
| 1787724928 | 16.67° C | 75% | 1017.3 hPa | 0 mm | - | - | - |
| 1787724648 | 16.67° C | 75% | 1017.3 hPa | 0 mm | - | - | - |
| 1787724383 | 16.67° C | 74% | 1017.1 hPa | 0 mm | - | - | - |
| 1787724113 | 16.67° C | 75% | 1016.9 hPa | 0 mm | - | - | - |
| 1787723863 | 16.11° C | 75% | 1017.1 hPa | 0 mm | - | - | - |
| 1787723568 | 16.11° C | 76% | 1017.1 hPa | 0 mm | - | - | - |
| 1787723318 | 16.67° C | 74% | 1017.3 hPa | 0 mm | - | - | - |
| 1787723068 | 16.67° C | 75% | 1017 hPa | 0 mm | - | - | - |
| 1787722793 | 15.56° C | 78% | 1017.4 hPa | 0 mm | - | - | - |
| 1787722540 | 15.56° C | 78% | 1017.4 hPa | 0 mm | - | - | - |
| 1787722292 | 15.56° C | 79% | 1017.4 hPa | 0 mm | - | - | - |
| 1787722018 | 15.56° C | 79% | 1017.7 hPa | 0 mm | - | - | - |
| 1787721728 | 15.56° C | 78% | 1017.5 hPa | 0 mm | - | - | - |
| 1787721443 | 16.11° C | 76% | 1017.1 hPa | 0 mm | - | - | - |
* Rain latest hour (hover to see other rain measurements)
** Current wind speed in m/s (hover to see current wind gust speed)